Terminal Aerodrome Forecast
Issued by NWS

Home | Current Version | Previous Version | Graphics & Text | Print | Product List | Glossary On
Versions: 1 2 3 4 5 6 7 8 9 10 11 12 13 14 15 16 17 18 19 20 21 22 23
000
FTUS43 KICT 251136
TAFRSL
TAF
KRSL 251136Z 2512/2612 02012KT P6SM FEW004 BKN035 OVC100
      TEMPO 2512/2515 BKN004
     FM251600 06008KT P6SM SCT035 BKN100
     FM252200 07009KT P6SM VCTS SCT035CB BKN080
     FM260300 04005KT P6SM BKN100=

USA.gov is the U.S. government's official web portal to all federal, state and local government web resources and services.